Time;durP1;ratioP1;P1;durP2;ratioP2;P2;SDS_P1;SDS_P2;PMS_P1;PMS_P2;Temp;Humidity;BMP_temperature;BMP_pressure;BME280_temperature;BME280_humidity;BME280_pressure;Samples;Min_cycle;Max_cycle;Signal;HPM_P1;HPM_P2
2022/06/06 00:00:44;;;;;;;10.73;6.32;;;13.00;99.90;;;;;;6189612;23;20191;-82
2022/06/06 00:03:10;;;;;;;9.85;6.05;;;12.70;99.90;;;;;;6216672;23;20148;-82
2022/06/06 00:05:36;;;;;;;10.38;6.63;;;;;;;;;;6216448;23;20584;-82
2022/06/06 00:08:05;;;;;;;10.77;6.30;;;13.30;99.90;;;;;;6216454;23;20255;-82
2022/06/06 00:10:31;;;;;;;10.20;6.45;;;12.70;99.90;;;;;;6189682;23;20156;-82
2022/06/06 00:12:56;;;;;;;10.40;6.35;;;;;;;;;;6189966;23;20647;-82
2022/06/06 00:15:22;;;;;;;9.38;6.30;;;;;;;;;;6216134;23;20231;-83
2022/06/06 00:17:49;;;;;;;10.32;5.95;;;;;;;;;;6215858;23;20622;-82
2022/06/06 00:20:16;;;;;;;9.55;5.85;;;12.80;99.90;;;;;;6216215;23;20178;-83
2022/06/06 00:22:42;;;;;;;9.48;6.22;;;12.90;99.90;;;;;;6189815;23;20164;-82
2022/06/06 00:25:08;;;;;;;7.88;5.93;;;12.70;99.90;;;;;;6216350;23;20162;-82
2022/06/06 00:27:34;;;;;;;14.68;6.28;;;12.90;99.90;;;;;;6189416;23;20156;-82
2022/06/06 00:29:59;;;;;;;8.82;5.93;;;12.70;99.90;;;;;;6189670;23;20547;-82
2022/06/06 00:35:10;;;;;;;10.35;6.45;;;;;;;;;;6193272;23;20278;-82
2022/06/06 00:37:38;;;;;;;10.90;6.53;;;12.80;99.90;;;;;;6215447;23;20621;-82
2022/06/06 00:40:07;;;;;;;9.52;6.22;;;12.70;99.90;;;;;;6189015;23;20160;-82
2022/06/06 00:42:38;;;;;;;9.95;6.53;;;12.50;99.90;;;;;;6215469;23;20241;-82
2022/06/06 00:45:24;;;;;;;9.23;5.53;;;12.60;99.90;;;;;;6216113;23;20619;-82
2022/06/06 00:48:00;;;;;;;10.88;6.22;;;12.30;99.90;;;;;;6189534;23;20202;-82
2022/06/06 00:50:37;;;;;;;8.27;5.45;;;12.50;99.90;;;;;;6215900;23;20587;-82
2022/06/06 00:53:03;;;;;;;8.80;5.95;;;12.70;99.90;;;;;;6217192;23;20144;-80
2022/06/06 00:55:33;;;;;;;10.40;6.22;;;12.40;99.90;;;;;;6224337;23;20167;-82
2022/06/06 00:58:07;;;;;;;7.80;6.07;;;12.30;99.90;;;;;;6215613;23;20677;-82
2022/06/06 01:00:33;;;;;;;10.55;5.82;;;12.60;99.90;;;;;;6189225;23;20155;-82
2022/06/06 01:03:03;;;;;;;8.30;5.95;;;12.40;99.90;;;;;;6215997;23;20178;-82
2022/06/06 01:05:29;;;;;;;8.65;5.78;;;12.20;99.90;;;;;;6215894;23;20523;-82
2022/06/06 01:07:55;;;;;;;8.48;5.45;;;12.40;99.90;;;;;;6215911;23;20638;-82
2022/06/06 01:10:21;;;;;;;11.00;6.53;;;11.70;99.90;;;;;;6215908;23;20156;-82
2022/06/06 01:12:50;;;;;;;9.40;6.63;;;12.00;99.90;;;;;;6215768;23;20152;-82
2022/06/06 01:15:17;;;;;;;8.85;6.15;;;12.20;99.90;;;;;;6215945;23;20205;-87
2022/06/06 01:18:05;;;;;;;8.45;5.97;;;11.90;99.90;;;;;;6164336;23;20160;-82
2022/06/06 01:21:05;;;;;;;10.38;6.68;;;11.90;99.90;;;;;;6215502;23;20151;-83
2022/06/06 01:24:03;;;;;;;8.10;5.88;;;12.20;99.90;;;;;;6215280;23;20661;-84
2022/06/06 01:26:53;;;;;;;8.95;5.88;;;12.30;99.90;;;;;;6215226;23;20152;-82
2022/06/06 01:29:24;;;;;;;10.05;5.10;;;12.40;99.90;;;;;;6217425;23;20151;-82
2022/06/06 01:32:00;;;;;;;8.63;5.65;;;11.80;99.90;;;;;;6190970;23;20477;-82
2022/06/06 01:34:29;;;;;;;11.20;5.30;;;11.70;99.90;;;;;;6217540;23;20587;-83
2022/06/06 01:36:56;;;;;;;12.00;6.43;;;12.10;99.90;;;;;;6217472;23;20207;-81
2022/06/06 01:39:24;;;;;;;7.60;5.90;;;12.30;99.90;;;;;;6217638;23;20155;-82
2022/06/06 01:42:26;;;;;;;9.70;6.07;;;11.90;99.90;;;;;;6191146;23;20188;-82
2022/06/06 01:45:06;;;;;;;7.13;5.38;;;12.10;99.90;;;;;;6154954;23;20234;-82
2022/06/06 01:47:43;;;;;;;10.45;5.38;;;11.70;99.90;;;;;;6218067;23;20162;-82
2022/06/06 01:50:10;;;;;;;10.63;5.95;;;12.00;99.90;;;;;;6217829;23;20151;-82
2022/06/06 01:52:49;;;;;;;9.52;6.63;;;11.70;99.90;;;;;;6217738;23;20179;-82
2022/06/06 01:55:14;;;;;;;8.23;6.05;;;11.90;99.90;;;;;;6217807;23;20210;-82
2022/06/06 01:57:40;;;;;;;10.13;6.13;;;;;;;;;;6217745;23;20156;-82
2022/06/06 02:00:07;;;;;;;15.93;5.93;;;11.80;99.90;;;;;;6191119;23;20156;-82
2022/06/06 02:02:32;;;;;;;8.15;5.70;;;11.60;99.90;;;;;;6217190;23;20191;-82
2022/06/06 02:04:58;;;;;;;7.43;5.18;;;;;;;;;;6217696;23;20460;-82
2022/06/06 02:07:24;;;;;;;10.38;5.90;;;;;;;;;;6217059;23;20526;-83
2022/06/06 02:09:50;;;;;;;9.80;5.85;;;;;;;;;;6217606;23;20156;-82
2022/06/06 02:12:19;;;;;;;8.63;5.80;;;;;;;;;;6217752;23;20163;-82
2022/06/06 02:14:47;;;;;;;8.90;5.63;;;11.70;99.90;;;;;;6217492;23;20583;-82
2022/06/06 02:17:12;;;;;;;10.02;6.13;;;11.70;99.90;;;;;;6166439;23;20243;-82
2022/06/06 02:19:39;;;;;;;7.07;5.45;;;;;;;;;;6190530;23;20210;-82
2022/06/06 02:22:06;;;;;;;8.05;5.68;;;12.00;99.90;;;;;;6217595;23;20184;-82
2022/06/06 02:24:32;;;;;;;9.15;6.10;;;;;;;;;;6190795;23;20195;-82
2022/06/06 02:26:57;;;;;;;9.95;5.25;;;11.20;99.90;;;;;;6190970;23;20164;-82
2022/06/06 02:29:24;;;;;;;7.97;5.50;;;;;;;;;;6190933;23;20615;-89
2022/06/06 02:31:49;;;;;;;10.15;5.13;;;11.80;99.90;;;;;;6190885;23;20214;-82
2022/06/06 02:34:16;;;;;;;10.07;6.30;;;;;;;;;;6190895;23;20163;-82
2022/06/06 02:36:42;;;;;;;8.43;5.97;;;12.10;99.90;;;;;;6217377;23;20156;-82
2022/06/06 02:39:07;;;;;;;7.38;5.20;;;;;;;;;;6216936;23;20148;-82
2022/06/06 02:41:33;;;;;;;8.00;5.03;;;;;;;;;;6217088;23;20254;-82
2022/06/06 02:43:59;;;;;;;11.77;5.68;;;;;;;;;;6217052;23;20630;-82
2022/06/06 02:46:25;;;;;;;8.05;5.43;;;;;;;;;;6217198;23;20156;-88
2022/06/06 02:48:51;;;;;;;9.32;5.88;;;11.70;99.90;;;;;;6166275;23;20171;-82
2022/06/06 02:51:17;;;;;;;9.43;6.07;;;11.90;99.90;;;;;;6195200;23;20156;-81
2022/06/06 02:53:42;;;;;;;5.97;4.68;;;12.00;99.90;;;;;;6201075;23;20611;-82
2022/06/06 02:56:08;;;;;;;8.25;5.75;;;;;;;;;;6217307;23;20163;-81
2022/06/06 02:58:34;;;;;;;8.00;5.53;;;;;;;;;;6217171;23;20455;-82
2022/06/06 03:01:04;;;;;;;9.15;5.60;;;11.80;99.90;;;;;;6216813;23;20238;-82
2022/06/06 03:03:31;;;;;;;7.40;5.25;;;11.60;99.90;;;;;;6190444;23;20180;-83
2022/06/06 03:06:05;;;;;;;7.78;5.82;;;11.50;99.90;;;;;;6217468;23;20152;-82
2022/06/06 03:08:43;;;;;;;8.85;5.50;;;11.80;99.90;;;;;;6185248;23;20497;-82
2022/06/06 03:11:33;;;;;;;8.80;5.38;;;12.00;99.90;;;;;;6187289;23;20547;-82
2022/06/06 03:14:37;;;;;;;8.10;5.93;;;12.30;99.90;;;;;;6187299;23;20161;-82
2022/06/06 03:23:06;;;;;;;9.20;6.68;;;12.00;99.90;;;;;;6186702;23;20614;-82
2022/06/06 03:25:49;;;;;;;11.85;7.82;;;12.30;99.90;;;;;;6186865;23;20153;-83
2022/06/06 03:28:46;;;;;;;11.35;7.25;;;12.50;99.90;;;;;;6187364;23;20147;-83
2022/06/06 03:31:36;;;;;;;12.00;7.07;;;12.40;99.90;;;;;;6186877;23;20145;-83
2022/06/06 03:34:26;;;;;;;14.20;8.73;;;12.50;99.90;;;;;;6183921;23;20592;-82
2022/06/06 03:37:02;;;;;;;15.18;8.05;;;12.70;99.90;;;;;;6186223;23;20148;-83
2022/06/06 03:39:49;;;;;;;11.35;6.75;;;12.70;99.90;;;;;;6186702;23;20136;-83
2022/06/06 03:42:21;;;;;;;11.75;7.63;;;12.60;99.90;;;;;;6186140;23;20180;-82
2022/06/06 03:44:53;;;;;;;8.93;6.53;;;12.70;99.90;;;;;;6185137;23;20149;-84
2022/06/06 03:47:33;;;;;;;9.23;6.78;;;13.00;99.90;;;;;;6186903;23;20211;-82
2022/06/06 03:50:17;;;;;;;13.82;7.68;;;12.60;99.90;;;;;;6185255;23;20231;-82
2022/06/06 03:53:15;;;;;;;11.23;6.45;;;13.00;99.90;;;;;;6184489;23;20164;-82
2022/06/06 03:56:08;;;;;;;9.75;6.75;;;13.50;99.90;;;;;;6186518;23;20164;-82
2022/06/06 03:58:35;;;;;;;10.73;6.93;;;13.50;99.90;;;;;;6190028;23;20165;-82
2022/06/06 04:01:06;;;;;;;9.60;6.10;;;13.30;99.90;;;;;;6197245;23;20188;-81
2022/06/06 04:03:33;;;;;;;9.70;6.93;;;13.40;99.90;;;;;;6199959;23;20148;-86
2022/06/06 04:06:01;;;;;;;10.68;6.28;;;13.60;99.90;;;;;;6196669;23;20171;-87
2022/06/06 04:08:27;;;;;;;10.75;6.20;;;13.60;99.90;;;;;;6206547;23;20215;-85
2022/06/06 04:11:08;;;;;;;9.63;6.75;;;13.70;99.90;;;;;;6204727;23;20156;-81
2022/06/06 04:13:46;;;;;;;7.78;5.75;;;14.20;99.90;;;;;;6203047;23;20164;-82
2022/06/06 04:16:21;;;;;;;8.85;6.38;;;14.10;99.90;;;;;;6204168;23;20141;-79
2022/06/06 04:19:01;;;;;;;9.50;6.07;;;14.10;99.90;;;;;;6188498;23;20167;-82
2022/06/06 04:21:39;;;;;;;8.27;6.05;;;14.60;99.90;;;;;;6197246;23;20156;-84
2022/06/06 04:24:22;;;;;;;9.02;6.60;;;14.10;99.90;;;;;;6213314;23;20145;-82
2022/06/06 04:27:11;;;;;;;9.00;6.38;;;14.40;99.90;;;;;;6213608;23;20201;-85
2022/06/06 04:29:43;;;;;;;8.55;6.00;;;14.90;99.90;;;;;;6203402;23;20149;-82
2022/06/06 04:32:20;;;;;;;7.55;5.07;;;14.40;99.90;;;;;;6184085;23;20157;-82
2022/06/06 04:34:54;;;;;;;7.07;5.20;;;15.40;99.90;;;;;;6185146;23;20140;-81
2022/06/06 04:37:29;;;;;;;7.10;5.22;;;14.70;99.90;;;;;;6185801;23;20183;-82
2022/06/06 04:40:14;;;;;;;7.38;4.55;;;15.60;99.90;;;;;;6185764;23;20666;-82
2022/06/06 04:42:56;;;;;;;5.97;4.57;;;15.30;99.90;;;;;;6185137;23;20223;-83
2022/06/06 04:45:38;;;;;;;6.40;4.38;;;16.00;99.90;;;;;;6185787;23;20596;-81
2022/06/06 04:48:05;;;;;;;4.82;4.22;;;15.40;99.90;;;;;;6185863;23;20137;-82
2022/06/06 04:50:33;;;;;;;5.10;3.30;;;15.40;99.90;;;;;;6202184;23;20168;-80
2022/06/06 04:53:08;;;;;;;5.78;4.10;;;15.90;99.90;;;;;;6195096;23;20593;-84
2022/06/06 04:55:36;;;;;;;5.93;3.58;;;16.10;99.90;;;;;;6185724;23;20175;-83
2022/06/06 04:58:04;;;;;;;4.22;3.53;;;15.80;99.90;;;;;;6183803;23;20647;-82
2022/06/06 05:00:35;;;;;;;6.95;4.72;;;16.30;99.90;;;;;;6184293;23;20180;-83
2022/06/06 05:03:01;;;;;;;5.78;4.07;;;16.30;99.90;;;;;;6185125;23;20148;-81
2022/06/06 05:05:39;;;;;;;3.65;2.90;;;16.50;99.90;;;;;;6184767;23;20207;-81
2022/06/06 05:08:29;;;;;;;3.25;2.92;;;16.60;99.90;;;;;;6198868;23;20334;-83
2022/06/06 05:11:28;;;;;;;6.13;3.33;;;17.00;99.90;;;;;;6214295;23;20144;-82
2022/06/06 05:13:56;;;;;;;3.38;3.00;;;16.90;99.90;;;;;;6214851;23;20190;-83
2022/06/06 05:16:41;;;;;;;4.05;2.97;;;16.90;99.90;;;;;;6215348;23;20148;-83
2022/06/06 05:19:15;;;;;;;4.03;3.17;;;16.90;99.90;;;;;;6214783;23;20152;-82
2022/06/06 05:21:56;;;;;;;3.42;2.83;;;17.30;99.90;;;;;;6188318;23;20630;-84
2022/06/06 05:25:01;;;;;;;3.13;2.50;;;17.30;99.90;;;;;;6214702;23;20231;-83
2022/06/06 05:27:48;;;;;;;3.80;3.00;;;17.30;99.90;;;;;;6215054;23;20146;-82
2022/06/06 05:30:35;;;;;;;4.72;3.70;;;17.80;99.90;;;;;;6214511;23;20143;-82
2022/06/06 05:33:11;;;;;;;3.47;3.08;;;17.60;99.90;;;;;;6188844;23;20548;-84
2022/06/06 05:35:55;;;;;;;3.50;2.90;;;17.40;99.90;;;;;;6215543;23;20566;-83
2022/06/06 05:38:30;;;;;;;6.68;3.10;;;17.60;99.90;;;;;;6216138;23;20151;-83
2022/06/06 05:41:13;;;;;;;3.28;2.75;;;17.90;99.90;;;;;;6215043;23;20179;-81
2022/06/06 05:44:11;;;;;;;3.92;3.08;;;18.20;99.90;;;;;;6189066;23;20235;-83
2022/06/06 05:46:43;;;;;;;3.83;3.30;;;18.20;99.90;;;;;;6215487;23;20136;-83
2022/06/06 05:49:45;;;;;;;3.53;2.97;;;18.50;99.90;;;;;;6189240;23;20164;-83
2022/06/06 05:52:11;;;;;;;3.38;2.85;;;;;;;;;;6215935;23;20568;-83
2022/06/06 05:54:55;;;;;;;3.38;3.08;;;18.50;99.90;;;;;;6215634;23;20152;-85
2022/06/06 05:57:36;;;;;;;3.67;3.30;;;18.80;99.90;;;;;;6188567;23;20160;-83
2022/06/06 06:00:05;;;;;;;3.67;3.08;;;19.10;99.90;;;;;;6214646;23;20471;-84
2022/06/06 06:02:53;;;;;;;3.33;2.97;;;19.10;99.90;;;;;;6215039;23;20184;-83
2022/06/06 06:05:27;;;;;;;5.80;3.00;;;19.50;99.90;;;;;;6215028;23;20156;-83
2022/06/06 06:08:30;;;;;;;3.83;2.95;;;19.70;99.90;;;;;;6188504;23;20199;-84
2022/06/06 06:11:11;;;;;;;2.67;2.45;;;19.30;99.90;;;;;;6216494;23;20156;-84
2022/06/06 06:13:57;;;;;;;3.45;2.75;;;19.90;99.90;;;;;;6216135;23;20571;-84
2022/06/06 06:16:29;;;;;;;3.58;2.65;;;20.00;99.90;;;;;;6217759;23;20171;-83
2022/06/06 06:19:06;;;;;;;3.38;2.65;;;20.10;99.90;;;;;;6217292;23;20218;-83
2022/06/06 06:21:45;;;;;;;3.65;3.03;;;20.20;99.90;;;;;;6217029;23;20176;-83
2022/06/06 06:24:19;;;;;;;3.03;2.55;;;19.90;99.90;;;;;;6217175;23;20172;-83
2022/06/06 06:26:45;;;;;;;3.95;2.88;;;20.00;99.90;;;;;;6217056;23;20167;-82
2022/06/06 06:29:11;;;;;;;2.83;2.53;;;20.10;99.90;;;;;;6216714;23;20282;-84
2022/06/06 06:31:52;;;;;;;2.47;2.28;;;20.00;99.90;;;;;;6189865;23;20498;-80
2022/06/06 06:34:44;;;;;;;2.30;2.10;;;20.20;99.90;;;;;;6216728;23;20175;-82
2022/06/06 06:37:46;;;;;;;2.50;2.25;;;20.10;99.90;;;;;;6216853;23;20194;-81
2022/06/06 06:40:44;;;;;;;5.20;2.40;;;20.30;99.90;;;;;;6190396;23;20221;-82
2022/06/06 06:43:29;;;;;;;2.40;2.15;;;20.50;99.90;;;;;;6210439;23;20172;-82
2022/06/06 06:46:01;;;;;;;2.25;2.05;;;20.60;99.90;;;;;;6217908;23;20206;-81
2022/06/06 06:48:31;;;;;;;2.42;2.22;;;20.70;99.90;;;;;;6221786;23;20209;-80
2022/06/06 06:51:03;;;;;;;3.03;2.47;;;20.40;99.90;;;;;;6192340;23;20160;-84
2022/06/06 06:53:56;;;;;;;2.83;2.33;;;20.90;99.90;;;;;;6218428;23;20595;-81
2022/06/06 06:56:47;;;;;;;2.10;1.90;;;21.20;99.90;;;;;;6217825;23;20210;-82
2022/06/06 06:59:34;;;;;;;2.92;2.53;;;20.90;99.90;;;;;;6190839;23;20599;-83
2022/06/06 07:08:46;;;;;;;2.88;2.17;;;21.30;99.90;;;;;;6217108;23;20237;-83
2022/06/06 07:11:45;;;;;;;2.58;2.38;;;21.50;99.90;;;;;;6217242;23;20139;-82
2022/06/06 07:14:40;;;;;;;3.10;2.28;;;21.20;99.90;;;;;;6219112;23;20132;-83
2022/06/06 07:17:09;;;;;;;2.53;2.33;;;22.00;99.90;;;;;;6217203;23;20178;-83
2022/06/06 07:19:59;;;;;;;2.33;1.92;;;21.70;99.90;;;;;;6217274;23;20152;-85
2022/06/06 07:22:59;;;;;;;2.15;1.95;;;21.70;99.90;;;;;;6217787;23;20262;-82
2022/06/06 07:25:19;;;;;;;2.35;2.15;;;21.80;99.90;;;;;;6216557;23;20207;-81
2022/06/06 07:27:45;;;;;;;2.15;1.95;;;21.90;99.90;;;;;;6217480;23;20148;-82
2022/06/06 07:30:11;;;;;;;2.30;2.10;;;21.80;99.90;;;;;;6217019;23;20163;-83
2022/06/06 07:32:39;;;;;;;3.75;2.08;;;21.90;99.90;;;;;;6217179;23;20497;-82
2022/06/06 07:35:31;;;;;;;2.60;2.40;;;22.20;99.90;;;;;;6216991;23;20231;-82
2022/06/06 07:38:05;;;;;;;2.17;1.98;;;22.10;99.90;;;;;;6216731;23;20205;-83
2022/06/06 07:40:39;;;;;;;2.40;2.05;;;21.90;99.90;;;;;;6216638;23;20228;-82
2022/06/06 07:43:31;;;;;;;2.58;2.38;;;21.60;99.90;;;;;;6216798;23;20163;-81
2022/06/06 07:46:25;;;;;;;2.80;2.13;;;22.20;99.90;;;;;;6216432;23;20150;-81
2022/06/06 07:49:13;;;;;;;3.53;2.85;;;22.20;99.90;;;;;;6216838;23;20231;-84
2022/06/06 07:51:57;;;;;;;2.50;2.30;;;22.50;99.90;;;;;;6216702;23;20164;-84
2022/06/06 07:54:43;;;;;;;2.65;2.15;;;22.90;99.90;;;;;;6216427;23;20137;-82
2022/06/06 07:57:39;;;;;;;2.42;2.08;;;22.40;99.90;;;;;;6173486;23;20160;-82
2022/06/06 08:00:11;;;;;;;2.33;2.10;;;22.60;99.90;;;;;;6216657;23;20156;-83
2022/06/06 08:02:48;;;;;;;2.75;1.95;;;22.70;99.90;;;;;;6216383;23;20172;-82
2022/06/06 08:05:51;;;;;;;2.40;2.20;;;22.70;99.90;;;;;;6216598;23;20564;-82
2022/06/06 08:08:38;;;;;;;2.38;2.17;;;22.70;99.90;;;;;;6216346;23;20192;-81
2022/06/06 08:11:29;;;;;;;2.28;2.08;;;22.80;99.90;;;;;;6216760;23;20180;-81
2022/06/06 08:14:30;;;;;;;2.40;1.83;;;23.30;99.90;;;;;;6188699;23;20156;-82
2022/06/06 08:17:10;;;;;;;2.58;2.38;;;23.20;99.90;;;;;;6216561;23;20148;-81
2022/06/06 08:19:43;;;;;;;15.88;2.10;;;23.00;99.90;;;;;;6216282;23;20594;-82
2022/06/06 08:22:10;;;;;;;2.15;1.95;;;23.00;99.90;;;;;;6215635;23;20172;-82
2022/06/06 08:24:47;;;;;;;3.72;1.65;;;23.10;99.90;;;;;;6216280;23;20152;-81
2022/06/06 08:27:18;;;;;;;1.60;1.50;;;23.10;99.90;;;;;;6189806;23;20139;-81
2022/06/06 08:29:45;;;;;;;2.20;2.00;;;23.20;99.90;;;;;;6216134;23;20152;-82
2022/06/06 08:32:11;;;;;;;1.88;1.77;;;23.40;99.90;;;;;;6215920;23;20163;-82
2022/06/06 08:34:37;;;;;;;2.00;1.80;;;23.40;99.90;;;;;;6216999;23;20218;-82
2022/06/06 08:37:33;;;;;;;2.05;1.85;;;23.40;99.90;;;;;;6189284;23;20160;-82
2022/06/06 08:40:17;;;;;;;1.73;1.63;;;23.50;99.90;;;;;;6189566;23;20190;-81
2022/06/06 08:43:08;;;;;;;1.58;1.33;;;23.50;99.90;;;;;;6215916;23;20198;-82
2022/06/06 08:45:52;;;;;;;2.17;1.98;;;23.60;99.90;;;;;;6189085;23;20160;-82
2022/06/06 08:48:43;;;;;;;2.83;1.60;;;23.60;99.90;;;;;;6190243;23;20218;-82
2022/06/06 08:51:39;;;;;;;2.00;1.45;;;23.70;99.90;;;;;;6216472;23;20155;-81
2022/06/06 08:54:35;;;;;;;2.85;1.65;;;24.10;99.90;;;;;;6215499;23;20198;-81
2022/06/06 08:57:30;;;;;;;1.70;1.52;;;23.80;99.90;;;;;;6215888;23;20155;-81
2022/06/06 09:00:01;;;;;;;2.95;1.70;;;23.90;99.90;;;;;;6188857;23;20163;-81
2022/06/06 09:02:26;;;;;;;1.80;1.70;;;24.10;99.90;;;;;;6189077;23;20195;-81
2022/06/06 09:05:30;;;;;;;1.60;1.50;;;24.20;99.90;;;;;;6189270;23;20152;-82
2022/06/06 09:08:33;;;;;;;1.77;1.67;;;24.20;99.90;;;;;;6215698;23;20191;-83
2022/06/06 09:11:17;;;;;;;1.80;1.52;;;24.40;99.90;;;;;;6215978;23;20517;-83
2022/06/06 09:13:51;;;;;;;2.90;1.80;;;24.30;99.90;;;;;;6216474;23;20175;-82
2022/06/06 09:16:55;;;;;;;1.75;1.65;;;24.40;99.90;;;;;;6215958;23;20139;-83
2022/06/06 09:19:39;;;;;;;1.80;1.70;;;24.40;99.90;;;;;;6216699;23;20155;-81
2022/06/06 09:22:07;;;;;;;3.20;1.80;;;;;;;;;;6215673;23;20187;-82
2022/06/06 09:25:07;;;;;;;1.98;1.60;;;24.60;98.90;;;;;;6215717;23;20555;-82
2022/06/06 09:27:44;;;;;;;3.20;1.40;;;24.70;99.90;;;;;;6216450;23;20175;-80
2022/06/06 09:30:24;;;;;;;1.50;1.40;;;24.70;99.80;;;;;;6218122;23;20154;-81
2022/06/06 09:33:16;;;;;;;2.40;2.20;;;24.80;99.60;;;;;;6217968;23;20590;-81
2022/06/06 09:35:53;;;;;;;2.03;1.63;;;24.90;98.30;;;;;;6216255;23;20144;-81
2022/06/06 09:38:30;;;;;;;1.55;1.42;;;25.00;96.10;;;;;;6216135;23;20182;-83
2022/06/06 09:41:16;;;;;;;2.17;1.98;;;25.30;98.80;;;;;;6218184;23;20582;-82
2022/06/06 09:44:00;;;;;;;1.38;1.23;;;25.20;94.90;;;;;;6192907;23;20160;-82
2022/06/06 09:46:37;;;;;;;2.03;1.50;;;25.40;95.60;;;;;;6191293;23;20242;-83
2022/06/06 09:49:41;;;;;;;1.65;1.55;;;25.70;96.70;;;;;;6190869;23;20183;-82
2022/06/06 09:52:25;;;;;;;1.50;1.35;;;25.80;94.40;;;;;;6191438;23;20163;-82
2022/06/06 10:01:29;;;;;;;1.80;1.70;;;25.80;90.00;;;;;;6217534;23;20245;-82
2022/06/06 10:04:33;;;;;;;2.08;1.50;;;25.10;94.40;;;;;;6190578;23;20485;-82
2022/06/06 10:07:26;;;;;;;2.13;1.80;;;25.60;90.80;;;;;;6217193;23;20239;-81
2022/06/06 10:10:38;;;;;;;3.10;1.88;;;25.70;85.90;;;;;;6217683;23;20159;-82
2022/06/06 10:13:38;;;;;;;1.40;1.30;;;25.80;88.40;;;;;;6151064;23;20649;-82
2022/06/06 10:16:30;;;;;;;1.58;1.48;;;25.90;84.10;;;;;;6217693;23;20148;-83
2022/06/06 10:19:13;;;;;;;2.05;1.70;;;25.60;87.50;;;;;;6190916;23;20526;-83
2022/06/06 10:21:47;;;;;;;1.60;1.30;;;25.60;90.00;;;;;;6191124;23;20334;-83
2022/06/06 10:24:51;;;;;;;1.60;1.45;;;25.40;87.90;;;;;;6190836;23;20590;-82
2022/06/06 10:27:19;;;;;;;1.25;1.15;;;25.60;90.30;;;;;;6190232;23;20531;-82
2022/06/06 10:30:11;;;;;;;1.58;1.45;;;25.80;83.10;;;;;;6217332;23;20159;-82
2022/06/06 10:33:14;;;;;;;2.08;1.50;;;26.10;78.80;;;;;;6217221;23;20145;-82
2022/06/06 10:35:47;;;;;;;1.40;1.23;;;26.00;81.50;;;;;;6217570;23;20152;-83
2022/06/06 10:38:28;;;;;;;1.50;1.40;;;26.20;80.20;;;;;;6191188;23;20206;-82
2022/06/06 10:41:05;;;;;;;2.05;1.88;;;25.90;84.00;;;;;;6217788;23;20171;-82
2022/06/06 10:43:54;;;;;;;1.92;1.70;;;25.90;87.50;;;;;;6217554;23;20154;-82
2022/06/06 10:46:37;;;;;;;2.28;1.58;;;26.00;86.90;;;;;;6218680;23;20144;-82
2022/06/06 10:49:03;;;;;;;1.80;1.40;;;;;;;;;;6225817;23;20140;-83
2022/06/06 10:52:00;;;;;;;1.52;1.42;;;25.90;88.90;;;;;;6219769;23;20156;-83
2022/06/06 10:54:50;;;;;;;3.65;1.48;;;26.00;90.90;;;;;;6217518;23;20568;-83
2022/06/06 10:57:55;;;;;;;1.13;1.10;;;26.20;85.40;;;;;;6190388;23;20210;-83
2022/06/06 11:00:23;;;;;;;1.60;1.23;;;26.70;76.60;;;;;;6216478;23;20159;-83
2022/06/06 11:03:13;;;;;;;2.67;1.10;;;26.60;77.50;;;;;;6216744;23;20180;-84
2022/06/06 11:05:57;;;;;;;1.52;1.10;;;26.50;80.80;;;;;;6190541;23;20148;-83
2022/06/06 11:09:02;;;;;;;1.02;1.02;;;26.40;74.40;;;;;;6216363;23;20254;-83
2022/06/06 11:11:52;;;;;;;1.20;1.10;;;26.30;78.60;;;;;;6216636;23;20182;-83
2022/06/06 11:14:39;;;;;;;1.60;1.50;;;26.40;77.60;;;;;;6216652;23;20207;-82
2022/06/06 11:17:38;;;;;;;1.48;1.38;;;26.50;75.00;;;;;;6216913;23;20158;-83
2022/06/06 11:20:39;;;;;;;0.88;0.85;;;26.60;77.30;;;;;;6217415;23;20148;-83
2022/06/06 11:23:04;;;;;;;1.05;1.05;;;26.40;77.30;;;;;;6191947;23;20274;-82
2022/06/06 11:25:57;;;;;;;1.27;1.13;;;26.60;77.10;;;;;;6218223;23;20202;-83
2022/06/06 11:28:35;;;;;;;1.17;1.08;;;26.70;74.80;;;;;;6131399;23;20156;-82
2022/06/06 11:31:00;;;;;;;0.93;0.93;;;26.80;75.50;;;;;;6192479;23;20159;-82
2022/06/06 11:33:56;;;;;;;1.20;1.10;;;26.90;80.20;;;;;;6228872;23;20152;-83
2022/06/06 11:36:45;;;;;;;1.05;1.05;;;27.00;76.60;;;;;;6241732;23;20132;-89
2022/06/06 11:39:58;;;;;;;1.42;1.33;;;27.10;72.10;;;;;;6243743;23;20210;-83
2022/06/06 11:42:27;;;;;;;1.58;1.40;;;27.10;74.00;;;;;;6150839;23;20183;-86
2022/06/06 11:45:28;;;;;;;1.30;1.17;;;26.70;75.00;;;;;;6209240;23;20168;-83
2022/06/06 11:48:11;;;;;;;1.48;1.38;;;26.90;78.80;;;;;;6152275;23;20156;-83
2022/06/06 11:51:08;;;;;;;1.20;1.10;;;26.70;72.20;;;;;;6216543;23;20654;-84
2022/06/06 11:54:06;;;;;;;1.33;1.23;;;26.70;75.80;;;;;;6216801;23;20606;-84
2022/06/06 11:57:12;;;;;;;1.55;1.30;;;26.80;75.90;;;;;;6216604;23;20203;-83
2022/06/06 12:00:03;;;;;;;1.38;1.23;;;26.80;75.00;;;;;;6216092;23;20160;-83
2022/06/06 12:03:00;;;;;;;3.53;1.17;;;26.70;71.40;;;;;;6189865;23;20198;-83
2022/06/06 12:05:49;;;;;;;1.45;1.30;;;26.60;69.10;;;;;;6216236;23;20223;-83
2022/06/06 12:08:35;;;;;;;1.42;1.20;;;26.60;80.20;;;;;;6216147;23;20214;-83
2022/06/06 12:11:23;;;;;;;2.90;1.40;;;26.60;75.30;;;;;;6216807;23;20140;-83
2022/06/06 12:13:51;;;;;;;1.30;1.20;;;26.60;77.40;;;;;;6216730;23;20140;-83
2022/06/06 12:16:24;;;;;;;1.42;1.33;;;26.60;73.10;;;;;;6217073;23;20156;-83
2022/06/06 12:19:18;;;;;;;1.35;1.25;;;26.50;68.00;;;;;;6189930;23;20523;-83
2022/06/06 12:22:18;;;;;;;2.45;1.48;;;26.40;70.10;;;;;;6190117;23;20503;-83
2022/06/06 12:25:09;;;;;;;1.20;1.10;;;26.40;73.90;;;;;;6216871;23;20143;-83
2022/06/06 12:27:59;;;;;;;2.80;1.48;;;26.50;76.90;;;;;;6190194;23;20159;-82
2022/06/06 12:30:34;;;;;;;1.23;1.13;;;26.60;76.90;;;;;;6217130;23;20153;-82
2022/06/06 12:33:18;;;;;;;1.30;1.20;;;26.70;75.50;;;;;;6189880;23;20183;-83
2022/06/06 12:36:02;;;;;;;1.30;1.20;;;26.60;75.80;;;;;;6216396;23;20202;-84
2022/06/06 12:38:47;;;;;;;1.52;1.10;;;26.50;73.00;;;;;;6216367;23;20178;-82
2022/06/06 12:41:37;;;;;;;1.38;1.27;;;26.60;72.10;;;;;;6189768;23;20577;-83
2022/06/06 12:44:26;;;;;;;1.33;1.23;;;26.50;73.30;;;;;;6216517;23;20559;-82
2022/06/06 12:47:30;;;;;;;1.40;1.27;;;26.30;74.90;;;;;;6216479;23;20177;-83
2022/06/06 12:50:10;;;;;;;1.27;1.17;;;26.20;74.70;;;;;;6198912;23;20155;-83
2022/06/06 12:52:54;;;;;;;1.27;1.17;;;26.30;76.80;;;;;;6216220;23;20180;-83
2022/06/06 12:55:38;;;;;;;1.67;1.58;;;26.40;75.00;;;;;;6216392;23;20140;-84
2022/06/06 12:58:19;;;;;;;1.77;1.52;;;26.50;77.00;;;;;;6216397;23;20140;-82
2022/06/06 13:03:43;;;;;;;1.20;1.10;;;;;;;;;;6216097;23;20152;-83
2022/06/06 13:06:47;;;;;;;1.40;1.30;;;26.50;73.60;;;;;;6216129;23;20156;-83
2022/06/06 13:09:33;;;;;;;0.93;0.93;;;26.50;75.20;;;;;;6189738;23;20206;-83
2022/06/06 13:12:39;;;;;;;1.35;1.20;;;26.50;75.90;;;;;;6217299;23;20148;-82
2022/06/06 13:15:13;;;;;;;1.48;1.17;;;26.40;77.70;;;;;;6217197;23;20138;-82
2022/06/06 13:18:01;;;;;;;1.30;1.20;;;26.40;75.90;;;;;;6218004;23;20153;-82
2022/06/06 13:20:32;;;;;;;1.30;1.20;;;26.50;76.20;;;;;;6211061;23;20144;-84
2022/06/06 13:23:30;;;;;;;3.75;0.88;;;26.60;76.60;;;;;;6243575;23;20191;-83
2022/06/06 13:26:22;;;;;;;1.70;1.60;;;26.50;76.30;;;;;;6169368;23;20182;-89
2022/06/06 13:28:53;;;;;;;1.80;1.10;;;26.60;76.40;;;;;;6216186;23;20140;-82
2022/06/06 13:31:57;;;;;;;1.38;1.27;;;26.70;75.90;;;;;;6191453;23;20152;-83
2022/06/06 13:34:50;;;;;;;1.25;1.15;;;26.60;74.90;;;;;;6219614;23;20136;-83
2022/06/06 13:37:19;;;;;;;1.40;1.25;;;26.40;75.40;;;;;;6237078;23;20155;-89
2022/06/06 13:39:54;;;;;;;1.33;1.20;;;26.40;76.30;;;;;;6242336;23;20144;-88
2022/06/06 13:42:39;;;;;;;1.58;1.48;;;26.30;77.90;;;;;;6242186;23;20171;-85
2022/06/06 13:45:16;;;;;;;1.50;1.40;;;26.20;77.90;;;;;;6188397;23;20148;-83
2022/06/06 13:48:00;;;;;;;1.73;1.20;;;26.10;76.90;;;;;;6214919;23;20190;-84
2022/06/06 13:50:58;;;;;;;1.52;1.42;;;26.20;78.60;;;;;;6214864;23;20140;-82
2022/06/06 13:53:42;;;;;;;1.48;1.38;;;26.20;77.90;;;;;;6213905;23;20225;-82
2022/06/06 13:56:33;;;;;;;1.77;1.40;;;26.40;76.50;;;;;;6187133;23;20176;-82
2022/06/06 13:59:24;;;;;;;1.38;1.27;;;26.40;76.00;;;;;;6215031;23;20163;-84
2022/06/06 14:02:08;;;;;;;1.50;1.40;;;26.30;85.00;;;;;;6188259;23;20564;-83
2022/06/06 14:04:59;;;;;;;1.50;1.40;;;26.50;77.90;;;;;;6188212;23;20163;-82
2022/06/06 14:07:53;;;;;;;1.60;1.50;;;26.60;79.00;;;;;;6188083;23;20655;-83
2022/06/06 14:10:20;;;;;;;1.60;1.50;;;26.60;77.80;;;;;;6214982;23;20339;-82
2022/06/06 14:13:18;;;;;;;1.42;1.27;;;26.60;76.80;;;;;;6215061;23;20163;-83
2022/06/06 14:15:56;;;;;;;1.98;1.70;;;26.60;76.60;;;;;;6177307;23;20267;-81
2022/06/06 14:18:30;;;;;;;1.90;1.70;;;26.40;76.70;;;;;;6164802;23;20160;-83
2022/06/06 14:20:57;;;;;;;1.63;1.48;;;26.40;77.50;;;;;;6214546;23;20201;-85
2022/06/06 14:23:29;;;;;;;1.40;1.30;;;26.30;77.10;;;;;;6214368;23;20163;-83
2022/06/06 14:26:01;;;;;;;1.63;1.40;;;26.10;78.30;;;;;;6214507;23;20144;-85